Time;durP1;ratioP1;P1;durP2;ratioP2;P2;SDS_P1;SDS_P2;PMS_P1;PMS_P2;Temp;Humidity;BMP_temperature;BMP_pressure;BME280_temperature;BME280_humidity;BME280_pressure;Samples;Min_cycle;Max_cycle;Signal;HPM_P1;HPM_P2
2023/03/05 00:02:24;;;;;;;35.30;23.07;;;4.00;76.20;;;;;;5090974;28;20689;-83
2023/03/05 00:04:49;;;;;;;35.23;24.17;;;4.00;76.00;;;;;;5095771;28;20213;-83
2023/03/05 00:07:15;;;;;;;34.43;24.13;;;4.10;76.40;;;;;;5083922;28;20188;-82
2023/03/05 00:09:41;;;;;;;31.77;22.37;;;4.00;76.20;;;;;;5066929;28;20200;-85
2023/03/05 00:12:06;;;;;;;37.80;24.27;;;4.00;76.50;;;;;;5063813;28;20582;-83
2023/03/05 00:14:32;;;;;;;33.57;22.80;;;4.00;76.40;;;;;;5089592;28;20190;-80
2023/03/05 00:16:58;;;;;;;35.17;22.50;;;4.10;75.90;;;;;;5087725;28;20207;-82
2023/03/05 00:19:24;;;;;;;35.80;23.10;;;4.20;75.10;;;;;;5082871;28;20187;-83
2023/03/05 00:21:50;;;;;;;32.80;22.57;;;4.10;74.70;;;;;;5082168;28;20192;-83
2023/03/05 00:24:17;;;;;;;35.10;22.67;;;4.10;75.40;;;;;;5093137;28;20186;-84
2023/03/05 00:26:44;;;;;;;34.43;22.33;;;4.20;74.90;;;;;;5101178;28;20309;-80
2023/03/05 00:29:14;;;;;;;35.40;22.07;;;4.00;75.60;;;;;;5084639;28;20184;-83
2023/03/05 00:31:40;;;;;;;35.47;22.03;;;4.00;75.30;;;;;;5095282;28;20759;-81
2023/03/05 00:34:12;;;;;;;33.33;21.47;;;4.00;74.60;;;;;;5082417;28;20570;-80
2023/03/05 00:36:49;;;;;;;38.47;23.10;;;4.20;73.90;;;;;;5081341;28;20167;-82
2023/03/05 00:39:16;;;;;;;34.73;22.23;;;4.10;74.80;;;;;;5085751;28;20212;-84
2023/03/05 00:41:42;;;;;;;34.83;22.13;;;4.00;75.30;;;;;;5100419;28;20183;-82
2023/03/05 00:44:08;;;;;;;34.23;22.70;;;4.10;75.10;;;;;;5083129;28;20186;-84
2023/03/05 00:46:34;;;;;;;36.97;23.27;;;4.10;75.00;;;;;;5087489;28;20180;-84
2023/03/05 00:48:59;;;;;;;33.63;22.00;;;4.00;75.20;;;;;;5082357;28;20230;-84
2023/03/05 00:51:26;;;;;;;42.23;23.43;;;4.00;74.90;;;;;;5101195;28;20188;-84
2023/03/05 00:53:53;;;;;;;33.80;22.40;;;4.20;74.80;;;;;;5086683;28;20199;-84
2023/03/05 00:56:19;;;;;;;41.30;22.70;;;4.10;75.60;;;;;;5097384;28;20253;-84
2023/03/05 00:58:44;;;;;;;34.63;22.43;;;4.00;75.90;;;;;;5086048;28;20235;-81
2023/03/05 01:01:10;;;;;;;31.60;22.60;;;3.90;76.10;;;;;;5086390;28;20195;-81
2023/03/05 01:03:36;;;;;;;32.23;22.23;;;4.00;75.40;;;;;;5081171;28;20297;-82
2023/03/05 01:06:12;;;;;;;31.47;21.70;;;4.00;75.90;;;;;;5080082;28;20237;-83
2023/03/05 01:08:38;;;;;;;31.80;21.40;;;4.00;75.60;;;;;;5062049;28;20187;-83
2023/03/05 01:11:05;;;;;;;34.93;22.43;;;4.10;75.40;;;;;;5097288;28;20218;-82
2023/03/05 01:13:31;;;;;;;32.43;22.17;;;4.00;75.90;;;;;;5102262;28;20216;-82
2023/03/05 01:15:56;;;;;;;35.17;20.77;;;4.00;76.00;;;;;;5100841;28;20186;-83
2023/03/05 01:18:22;;;;;;;33.50;22.43;;;4.10;75.70;;;;;;5082312;28;20617;-83
2023/03/05 01:20:47;;;;;;;36.57;22.50;;;4.10;74.80;;;;;;5092968;28;20233;-83
2023/03/05 01:23:13;;;;;;;34.50;21.83;;;4.10;74.60;;;;;;5064359;28;20263;-83
2023/03/05 01:25:39;;;;;;;40.67;22.03;;;4.10;75.00;;;;;;5086523;28;20194;-83
2023/03/05 01:28:05;;;;;;;33.73;22.03;;;4.10;75.30;;;;;;5099344;28;20187;-83
2023/03/05 01:30:31;;;;;;;35.80;22.10;;;4.10;75.50;;;;;;5069329;28;20631;-83
2023/03/05 01:32:57;;;;;;;36.07;22.23;;;4.10;75.30;;;;;;5096101;28;20218;-83
2023/03/05 01:35:24;;;;;;;33.80;22.37;;;4.00;75.20;;;;;;5085721;28;20207;-83
2023/03/05 01:37:51;;;;;;;34.37;22.87;;;4.00;76.40;;;;;;5093942;28;20179;-82
2023/03/05 01:40:19;;;;;;;33.27;20.83;;;4.00;75.60;;;;;;5088293;28;20198;-83
2023/03/05 01:42:54;;;;;;;33.00;21.20;;;3.90;76.20;;;;;;5079834;28;20200;-82
2023/03/05 01:45:20;;;;;;;30.93;22.13;;;4.20;74.80;;;;;;5080605;28;20179;-81
2023/03/05 01:47:46;;;;;;;31.37;20.47;;;4.10;75.20;;;;;;5088396;28;20260;-82
2023/03/05 01:50:23;;;;;;;33.03;20.67;;;4.10;75.40;;;;;;5085507;28;20202;-82
2023/03/05 01:52:57;;;;;;;30.73;20.07;;;4.20;75.40;;;;;;5090445;28;20214;-84
2023/03/05 01:55:25;;;;;;;32.27;21.37;;;4.10;74.90;;;;;;5082054;28;20241;-82
2023/03/05 01:58:01;;;;;;;32.47;20.60;;;4.10;74.80;;;;;;5098097;28;20191;-82
2023/03/05 02:00:30;;;;;;;29.40;20.00;;;4.10;75.40;;;;;;5094438;28;20181;-82
2023/03/05 02:02:57;;;;;;;34.73;21.10;;;4.10;75.50;;;;;;5092160;28;20211;-82
2023/03/05 02:05:31;;;;;;;40.40;23.33;;;4.00;75.20;;;;;;5096426;28;20230;-83
2023/03/05 02:08:00;;;;;;;32.03;20.77;;;4.00;75.20;;;;;;5099355;28;20464;-82
2023/03/05 02:10:41;;;;;;;32.03;21.47;;;3.90;77.00;;;;;;5096058;28;20318;-80
2023/03/05 02:13:11;;;;;;;32.80;20.97;;;4.00;76.10;;;;;;5097792;28;20210;-85
2023/03/05 02:15:37;;;;;;;33.77;21.13;;;4.10;74.80;;;;;;5083432;28;20170;-84
2023/03/05 02:18:04;;;;;;;31.53;20.67;;;4.00;75.10;;;;;;5090165;28;20210;-83
2023/03/05 02:20:44;;;;;;;33.13;21.37;;;4.10;74.60;;;;;;5080512;28;20809;-83
2023/03/05 02:23:09;;;;;;;33.13;21.47;;;4.20;73.90;;;;;;5080498;28;20573;-83
2023/03/05 02:25:35;;;;;;;33.30;20.80;;;4.40;73.20;;;;;;5079691;28;20187;-82
2023/03/05 02:28:15;;;;;;;29.23;19.63;;;4.30;73.50;;;;;;5082456;28;20218;-83
2023/03/05 02:30:41;;;;;;;27.53;19.20;;;4.30;74.00;;;;;;5085394;28;20211;-84
2023/03/05 02:33:07;;;;;;;35.73;21.23;;;4.40;73.30;;;;;;5107893;28;20270;-81
2023/03/05 02:35:32;;;;;;;37.30;21.20;;;4.40;73.30;;;;;;5099822;28;20178;-81
2023/03/05 02:37:58;;;;;;;31.70;21.03;;;4.40;73.00;;;;;;5111188;28;20205;-80
2023/03/05 02:40:24;;;;;;;30.50;19.70;;;4.50;72.60;;;;;;5081510;28;20182;-84
2023/03/05 02:42:50;;;;;;;31.93;20.83;;;4.50;72.80;;;;;;5079721;28;20200;-82
2023/03/05 02:45:16;;;;;;;31.30;20.60;;;4.60;72.80;;;;;;5094799;28;20212;-83
2023/03/05 02:47:42;;;;;;;34.53;21.43;;;4.60;72.50;;;;;;5096406;28;20213;-84
2023/03/05 02:50:10;;;;;;;35.23;20.80;;;4.60;72.70;;;;;;5084891;28;20214;-84
2023/03/05 02:52:36;;;;;;;31.03;21.63;;;4.60;72.50;;;;;;5084500;28;20240;-82
2023/03/05 02:55:02;;;;;;;37.10;22.43;;;4.70;71.60;;;;;;5083387;28;20218;-82
2023/03/05 02:57:27;;;;;;;29.53;20.80;;;4.60;71.40;;;;;;5085551;28;20187;-82
2023/03/05 02:59:53;;;;;;;33.53;21.20;;;4.40;72.00;;;;;;5082504;28;20191;-82
2023/03/05 03:02:19;;;;;;;34.60;22.07;;;4.30;73.10;;;;;;5095047;28;20605;-84
2023/03/05 03:04:44;;;;;;;36.57;22.17;;;4.40;72.30;;;;;;5096014;28;20178;-84
2023/03/05 03:07:11;;;;;;;31.60;20.57;;;4.20;72.60;;;;;;5097280;28;20187;-82
2023/03/05 03:09:37;;;;;;;29.83;20.53;;;4.10;73.50;;;;;;5090801;28;20233;-82
2023/03/05 03:12:04;;;;;;;33.87;21.67;;;4.20;73.90;;;;;;5090394;28;20195;-84
2023/03/05 03:14:38;;;;;;;31.77;21.33;;;4.20;73.50;;;;;;5080612;28;20229;-82
2023/03/05 03:17:09;;;;;;;34.93;21.73;;;4.10;74.20;;;;;;5063264;28;20209;-82
2023/03/05 03:19:36;;;;;;;34.27;23.23;;;4.10;74.40;;;;;;5091243;28;20186;-83
2023/03/05 03:22:02;;;;;;;35.03;22.47;;;4.00;74.40;;;;;;5084044;28;20202;-83
2023/03/05 03:24:30;;;;;;;37.70;23.60;;;4.00;74.60;;;;;;5096094;28;20198;-83
2023/03/05 03:26:55;;;;;;;34.77;22.30;;;4.00;74.70;;;;;;5081730;28;20182;-85
2023/03/05 03:29:21;;;;;;;36.43;22.77;;;3.90;74.90;;;;;;5086362;28;20221;-82
2023/03/05 03:31:47;;;;;;;34.83;23.30;;;3.90;75.00;;;;;;5084505;28;20769;-83
2023/03/05 03:34:14;;;;;;;28.87;21.13;;;3.80;75.60;;;;;;5088804;28;20168;-84
2023/03/05 03:36:44;;;;;;;35.70;22.83;;;3.70;76.40;;;;;;5078041;28;20214;-84
2023/03/05 03:39:10;;;;;;;35.13;21.93;;;3.80;75.70;;;;;;5089963;28;20746;-83
2023/03/05 03:41:40;;;;;;;35.67;22.43;;;3.70;75.90;;;;;;5081508;28;20188;-84
2023/03/05 03:44:07;;;;;;;35.43;21.33;;;3.70;76.00;;;;;;5077269;28;20183;-85
2023/03/05 03:46:34;;;;;;;32.33;21.47;;;3.70;76.20;;;;;;5094806;28;20175;-83
2023/03/05 03:49:00;;;;;;;33.70;21.67;;;4.00;74.70;;;;;;5090873;28;20194;-84
2023/03/05 03:51:26;;;;;;;31.83;21.93;;;4.00;74.70;;;;;;5093136;28;20211;-82
2023/03/05 03:53:52;;;;;;;35.23;22.47;;;4.00;74.50;;;;;;5082612;28;20203;-82
2023/03/05 03:56:17;;;;;;;31.60;21.13;;;3.90;75.00;;;;;;5094472;28;20194;-84
2023/03/05 03:58:43;;;;;;;35.27;21.67;;;4.00;75.00;;;;;;5103845;28;20171;-83
2023/03/05 04:01:09;;;;;;;32.93;21.30;;;3.90;75.50;;;;;;5090967;28;20218;-81
2023/03/05 04:03:34;;;;;;;33.23;21.33;;;3.90;75.30;;;;;;5083297;28;20207;-81
2023/03/05 04:06:00;;;;;;;35.63;21.70;;;4.00;74.60;;;;;;5098985;28;20229;-81
2023/03/05 04:08:26;;;;;;;30.87;20.73;;;4.10;74.60;;;;;;5102563;28;20182;-83
2023/03/05 04:10:51;;;;;;;32.60;20.33;;;4.20;73.20;;;;;;5077205;28;20218;-82
2023/03/05 04:13:17;;;;;;;32.60;21.97;;;4.10;74.40;;;;;;5101228;28;20227;-83
2023/03/05 04:15:43;;;;;;;36.97;22.33;;;4.20;73.40;;;;;;5100913;28;20236;-82
2023/03/05 04:18:10;;;;;;;33.17;22.23;;;4.10;73.50;;;;;;5099967;28;20685;-82
2023/03/05 04:20:35;;;;;;;33.70;21.73;;;4.00;74.60;;;;;;5084092;28;20552;-83
2023/03/05 04:23:01;;;;;;;36.20;21.57;;;4.00;75.20;;;;;;5093237;28;20202;-81
2023/03/05 04:25:26;;;;;;;33.63;22.97;;;3.90;75.30;;;;;;5091597;28;20190;-80
2023/03/05 04:27:52;;;;;;;34.27;23.10;;;3.90;75.40;;;;;;5081038;28;20190;-84
2023/03/05 04:30:18;;;;;;;33.67;21.13;;;3.70;76.00;;;;;;5080315;28;20588;-83
2023/03/05 04:32:43;;;;;;;37.50;22.87;;;3.80;75.80;;;;;;5087589;28;20211;-83
2023/03/05 04:35:09;;;;;;;35.07;22.27;;;3.80;76.40;;;;;;5098500;28;20194;-83
2023/03/05 04:37:35;;;;;;;34.57;22.37;;;3.90;75.00;;;;;;5087681;28;20700;-82
2023/03/05 04:40:01;;;;;;;36.00;22.83;;;4.00;74.50;;;;;;5083794;28;20202;-83
2023/03/05 04:42:26;;;;;;;33.63;23.00;;;3.90;75.50;;;;;;5102892;28;20222;-83
2023/03/05 04:44:52;;;;;;;37.90;22.77;;;3.80;76.20;;;;;;5101907;28;20198;-83
2023/03/05 04:47:18;;;;;;;38.50;22.43;;;3.70;76.40;;;;;;5090992;28;20238;-83
2023/03/05 04:49:44;;;;;;;39.73;23.43;;;3.60;77.30;;;;;;5094246;28;20802;-82
2023/03/05 04:52:11;;;;;;;37.27;22.47;;;3.60;77.70;;;;;;5085865;28;20208;-83
2023/03/05 04:54:36;;;;;;;36.07;22.37;;;3.60;77.50;;;;;;5090398;28;20824;-82
2023/03/05 04:57:02;;;;;;;32.53;21.73;;;3.70;77.30;;;;;;5081557;28;20179;-82
2023/03/05 04:59:28;;;;;;;32.23;22.03;;;3.70;77.30;;;;;;5081217;28;20637;-83
2023/03/05 05:01:54;;;;;;;37.33;22.90;;;3.70;76.80;;;;;;5082668;28;20241;-83
2023/03/05 05:04:20;;;;;;;38.37;23.73;;;3.70;76.80;;;;;;5082953;28;20186;-83
2023/03/05 05:06:46;;;;;;;35.47;22.53;;;3.70;77.30;;;;;;5083087;23;20243;-83
2023/03/05 05:09:12;;;;;;;35.07;21.77;;;3.70;77.60;;;;;;5060350;28;20179;-81
2023/03/05 05:11:39;;;;;;;35.77;22.60;;;3.90;76.30;;;;;;5059336;28;20180;-82
2023/03/05 05:14:05;;;;;;;37.97;22.30;;;3.90;76.50;;;;;;5040613;28;20257;-82
2023/03/05 05:16:31;;;;;;;35.03;23.23;;;3.80;77.00;;;;;;5084376;28;20203;-82
2023/03/05 05:18:56;;;;;;;34.87;22.00;;;4.00;75.70;;;;;;5064903;28;20704;-81
2023/03/05 05:21:22;;;;;;;35.33;22.60;;;3.80;76.20;;;;;;5099240;28;20194;-82
2023/03/05 05:23:48;;;;;;;33.27;22.97;;;3.80;77.00;;;;;;5078224;28;20179;-82
2023/03/05 05:26:13;;;;;;;35.70;23.20;;;3.70;76.90;;;;;;5079046;28;20214;-80
2023/03/05 05:28:43;;;;;;;37.23;22.33;;;3.70;76.90;;;;;;5085477;28;20191;-81
2023/03/05 05:31:10;;;;;;;36.73;22.90;;;3.90;75.60;;;;;;5098049;28;20252;-82
2023/03/05 05:33:36;;;;;;;39.77;23.50;;;4.10;74.80;;;;;;5097020;28;20190;-82
2023/03/05 05:36:07;;;;;;;35.73;22.43;;;4.10;74.40;;;;;;5096826;28;20244;-80
2023/03/05 05:38:34;;;;;;;37.13;22.47;;;3.90;75.60;;;;;;5099859;28;20731;-81
2023/03/05 05:41:11;;;;;;;32.87;22.30;;;3.90;76.10;;;;;;5100580;28;20183;-80
2023/03/05 05:43:38;;;;;;;34.10;23.27;;;3.90;76.00;;;;;;5101210;28;20174;-81
2023/03/05 05:46:06;;;;;;;32.13;23.03;;;3.80;76.70;;;;;;5089307;28;20207;-81
2023/03/05 05:48:34;;;;;;;31.20;20.90;;;3.80;76.70;;;;;;5070778;28;20191;-82
2023/03/05 05:51:08;;;;;;;32.93;21.97;;;3.80;76.80;;;;;;5083115;28;20678;-83
2023/03/05 05:53:33;;;;;;;35.20;23.40;;;3.70;77.00;;;;;;5100529;28;20609;-82
2023/03/05 05:55:59;;;;;;;35.73;22.00;;;3.70;77.00;;;;;;5091115;28;20230;-84
2023/03/05 05:58:25;;;;;;;33.37;23.17;;;3.70;77.30;;;;;;5100710;28;20194;-82
2023/03/05 06:00:50;;;;;;;34.43;21.97;;;3.70;77.80;;;;;;5100108;28;20179;-81
2023/03/05 06:03:16;;;;;;;35.40;22.77;;;3.70;77.90;;;;;;5099128;28;20208;-82
2023/03/05 06:05:42;;;;;;;32.47;21.90;;;3.70;78.10;;;;;;5082368;28;20214;-81
2023/03/05 06:08:08;;;;;;;36.27;22.67;;;3.70;77.30;;;;;;5080344;28;20270;-83
2023/03/05 06:10:34;;;;;;;37.17;21.73;;;3.80;77.50;;;;;;5079197;28;20256;-80
2023/03/05 06:12:59;;;;;;;33.23;22.47;;;3.90;77.20;;;;;;5077010;28;20175;-79
2023/03/05 06:15:25;;;;;;;38.40;22.83;;;4.00;76.20;;;;;;5060317;28;20451;-81
2023/03/05 06:17:51;;;;;;;34.87;21.67;;;4.00;75.60;;;;;;5079971;28;20186;-82
2023/03/05 06:20:17;;;;;;;36.20;21.60;;;4.00;75.90;;;;;;5095973;28;20179;-82
2023/03/05 06:22:43;;;;;;;33.23;22.03;;;3.80;76.70;;;;;;5078819;28;20255;-81
2023/03/05 06:25:09;;;;;;;36.93;23.47;;;3.70;77.70;;;;;;5079120;28;20187;-82
2023/03/05 06:27:35;;;;;;;36.27;23.70;;;3.70;78.30;;;;;;5078072;28;20183;-80
2023/03/05 06:30:01;;;;;;;39.93;22.70;;;3.60;79.10;;;;;;5094761;28;20195;-82
2023/03/05 06:32:26;;;;;;;39.33;23.33;;;3.70;78.70;;;;;;5090815;28;20560;-83
2023/03/05 06:34:52;;;;;;;36.10;22.57;;;3.70;78.30;;;;;;5078311;28;20180;-82
2023/03/05 06:37:18;;;;;;;36.67;21.80;;;3.70;78.70;;;;;;5080435;28;20203;-82
2023/03/05 06:39:44;;;;;;;33.37;22.20;;;3.70;79.40;;;;;;5079208;28;20314;-83
2023/03/05 06:42:09;;;;;;;37.03;22.70;;;3.80;77.40;;;;;;5082293;28;20199;-81
2023/03/05 06:44:39;;;;;;;32.33;22.27;;;3.90;77.50;;;;;;5083311;28;20215;-81
2023/03/05 06:47:07;;;;;;;34.23;22.57;;;3.80;78.00;;;;;;5070369;28;20206;-81
2023/03/05 06:49:32;;;;;;;37.93;24.07;;;3.60;78.50;;;;;;5087825;28;20256;-81
2023/03/05 06:51:58;;;;;;;34.80;22.10;;;3.70;79.30;;;;;;5073313;28;20203;-81
2023/03/05 06:54:23;;;;;;;37.37;23.40;;;3.70;79.30;;;;;;5097565;28;20262;-79
2023/03/05 06:56:49;;;;;;;33.00;22.93;;;3.60;79.40;;;;;;5092121;28;20207;-82
2023/03/05 06:59:16;;;;;;;31.77;22.30;;;3.70;79.20;;;;;;5080860;28;20185;-81
2023/03/05 07:01:43;;;;;;;33.90;23.03;;;3.80;79.10;;;;;;5085776;28;20266;-85
2023/03/05 07:04:10;;;;;;;37.70;22.87;;;3.90;78.70;;;;;;5076261;28;20698;-81
2023/03/05 07:06:38;;;;;;;39.83;24.60;;;4.10;75.70;;;;;;5078644;28;20222;-82
2023/03/05 07:09:05;;;;;;;32.83;22.67;;;4.00;76.70;;;;;;5056903;28;20182;-81
2023/03/05 07:11:31;;;;;;;38.37;23.87;;;4.10;76.20;;;;;;5075326;28;20211;-80
2023/03/05 07:13:58;;;;;;;35.83;23.73;;;4.00;76.80;;;;;;5094929;28;20175;-80
2023/03/05 07:16:26;;;;;;;33.97;22.73;;;4.00;76.50;;;;;;5078325;28;20211;-79
2023/03/05 07:18:52;;;;;;;38.40;23.97;;;4.30;74.80;;;;;;5073293;28;20559;-82
2023/03/05 07:21:20;;;;;;;37.83;24.30;;;4.30;75.60;;;;;;5081625;28;20185;-81
2023/03/05 07:23:46;;;;;;;41.07;24.87;;;4.30;75.10;;;;;;5094118;28;20189;-80
2023/03/05 07:26:12;;;;;;;39.20;24.87;;;4.20;75.50;;;;;;5079604;28;20210;-79
2023/03/05 07:28:38;;;;;;;36.87;24.43;;;4.00;76.50;;;;;;5081472;28;20198;-81
2023/03/05 07:31:07;;;;;;;35.93;24.33;;;3.90;77.10;;;;;;5079431;28;20207;-80
2023/03/05 07:33:34;;;;;;;35.97;24.77;;;4.00;78.30;;;;;;5078078;28;20176;-80
2023/03/05 07:36:00;;;;;;;37.73;24.17;;;4.00;77.90;;;;;;5083327;28;20262;-81
2023/03/05 07:38:26;;;;;;;34.60;23.03;;;4.10;76.70;;;;;;5077396;28;20222;-80
2023/03/05 07:40:52;;;;;;;34.63;23.43;;;4.20;76.50;;;;;;5070085;28;20184;-80
2023/03/05 07:43:18;;;;;;;33.80;22.63;;;4.30;75.60;;;;;;5098404;28;20190;-81
2023/03/05 07:45:44;;;;;;;37.60;24.43;;;4.40;74.20;;;;;;5100226;28;20211;-79
2023/03/05 07:48:16;;;;;;;39.50;25.17;;;4.20;76.00;;;;;;5100932;28;20163;-79
2023/03/05 07:50:42;;;;;;;38.30;24.33;;;4.20;76.60;;;;;;5086593;28;20838;-81
2023/03/05 07:53:09;;;;;;;36.50;23.33;;;4.20;76.30;;;;;;5062626;28;20184;-79
2023/03/05 07:55:41;;;;;;;35.40;22.90;;;4.40;75.50;;;;;;5092606;28;20703;-79
2023/03/05 07:58:07;;;;;;;37.63;23.20;;;4.50;74.20;;;;;;5060401;28;20165;-80
2023/03/05 08:00:33;;;;;;;32.57;22.10;;;4.60;73.90;;;;;;5076094;28;20201;-80
2023/03/05 08:02:58;;;;;;;34.73;21.87;;;4.60;74.60;;;;;;5081799;28;20548;-81
2023/03/05 08:05:25;;;;;;;35.47;22.20;;;4.70;73.40;;;;;;5080867;28;20293;-79
2023/03/05 08:07:51;;;;;;;31.00;23.50;;;4.60;74.00;;;;;;5081481;28;20183;-81
2023/03/05 08:10:17;;;;;;;37.70;23.70;;;4.60;74.90;;;;;;5079956;28;20203;-80
2023/03/05 08:12:42;;;;;;;38.40;24.23;;;4.50;75.40;;;;;;5062374;28;20716;-80
2023/03/05 08:15:08;;;;;;;34.50;23.03;;;4.40;76.50;;;;;;5078977;28;20179;-79
2023/03/05 08:17:34;;;;;;;32.17;22.17;;;4.40;76.30;;;;;;5079384;28;20190;-79
2023/03/05 08:20:04;;;;;;;42.10;28.70;;;4.50;75.30;;;;;;5058459;28;20273;-80
2023/03/05 08:22:33;;;;;;;34.67;22.83;;;4.80;73.90;;;;;;5070493;28;20188;-79
2023/03/05 08:25:00;;;;;;;36.67;22.87;;;4.70;74.40;;;;;;5065538;28;20195;-80
2023/03/05 08:27:25;;;;;;;33.50;22.90;;;4.60;75.40;;;;;;5068452;28;20199;-81
2023/03/05 08:29:51;;;;;;;34.43;22.10;;;4.60;75.60;;;;;;5070336;28;20199;-79
2023/03/05 08:32:17;;;;;;;37.20;22.47;;;4.50;75.40;;;;;;5050992;28;20179;-81
2023/03/05 08:34:42;;;;;;;33.73;21.50;;;4.60;76.80;;;;;;5076445;28;20172;-80
2023/03/05 08:37:08;;;;;;;31.67;21.43;;;4.70;76.10;;;;;;5068096;28;20208;-80
2023/03/05 08:39:35;;;;;;;32.37;21.03;;;4.80;75.30;;;;;;5058916;28;20193;-80
2023/03/05 08:42:00;;;;;;;34.67;20.93;;;4.90;76.40;;;;;;5082802;28;20187;-79
2023/03/05 08:44:26;;;;;;;29.50;19.43;;;5.00;75.20;;;;;;5098880;28;20253;-80
2023/03/05 08:46:52;;;;;;;26.03;19.23;;;5.20;73.30;;;;;;5098723;28;20195;-81
2023/03/05 08:49:17;;;;;;;27.63;19.00;;;5.30;73.30;;;;;;5099568;28;20242;-79
2023/03/05 08:51:43;;;;;;;30.80;20.27;;;5.30;72.60;;;;;;5090343;28;20179;-82
2023/03/05 08:54:09;;;;;;;26.40;18.80;;;5.30;73.80;;;;;;5080284;28;20199;-81
2023/03/05 08:56:35;;;;;;;27.00;17.47;;;5.40;73.00;;;;;;5078975;28;20215;-80
2023/03/05 08:59:02;;;;;;;28.00;20.53;;;5.30;73.50;;;;;;5079180;28;20586;-81
2023/03/05 09:01:30;;;;;;;30.53;20.93;;;5.40;74.90;;;;;;5089414;28;20235;-80
2023/03/05 09:03:59;;;;;;;27.30;19.50;;;5.40;73.50;;;;;;5098220;28;20269;-81
2023/03/05 09:06:26;;;;;;;28.10;19.67;;;5.30;74.80;;;;;;5088194;28;20238;-78
2023/03/05 09:08:52;;;;;;;28.83;20.30;;;5.30;74.90;;;;;;5060345;28;20751;-81
2023/03/05 09:11:17;;;;;;;27.17;18.87;;;5.40;73.70;;;;;;5078158;28;20211;-81
2023/03/05 09:13:43;;;;;;;27.37;20.13;;;5.50;73.80;;;;;;5077405;28;20221;-81
2023/03/05 09:16:15;;;;;;;25.23;18.27;;;5.50;73.90;;;;;;5076982;28;20207;-81
2023/03/05 09:18:41;;;;;;;28.73;19.67;;;5.60;73.60;;;;;;5075537;28;20179;-82
2023/03/05 09:21:13;;;;;;;33.63;19.63;;;5.50;74.00;;;;;;5077940;28;20225;-81
2023/03/05 09:23:40;;;;;;;26.00;19.57;;;5.60;74.20;;;;;;5089798;28;20214;-82
2023/03/05 09:26:08;;;;;;;28.03;20.17;;;5.60;73.60;;;;;;5100651;28;20199;-81
2023/03/05 09:28:34;;;;;;;26.63;19.33;;;5.80;73.20;;;;;;5101631;28;20183;-82
2023/03/05 09:31:04;;;;;;;29.30;20.23;;;5.90;72.00;;;;;;5079142;28;20218;-81
2023/03/05 09:33:31;;;;;;;26.20;19.70;;;5.70;73.40;;;;;;5077621;28;20179;-82
2023/03/05 09:35:58;;;;;;;29.20;19.10;;;5.80;73.10;;;;;;5077289;28;20681;-81
2023/03/05 09:38:24;;;;;;;29.07;20.33;;;5.90;73.50;;;;;;5078731;28;20187;-82
2023/03/05 09:41:06;;;;;;;32.60;20.47;;;5.80;73.40;;;;;;5081320;28;20188;-80
2023/03/05 09:43:55;;;;;;;30.27;20.47;;;5.90;73.20;;;;;;5063416;28;20214;-80
2023/03/05 09:46:56;;;;;;;29.40;20.93;;;5.60;75.70;;;;;;5034271;28;20215;-82
2023/03/05 09:49:49;;;;;;;29.97;19.37;;;5.40;76.70;;;;;;5077167;28;20168;-81
2023/03/05 09:52:38;;;;;;;29.27;20.23;;;5.40;76.30;;;;;;5078958;28;20222;-80
2023/03/05 09:55:09;;;;;;;31.23;20.60;;;5.60;74.50;;;;;;5076867;28;20182;-80
2023/03/05 09:57:50;;;;;;;24.87;19.00;;;5.60;75.00;;;;;;5077180;28;20252;-80
2023/03/05 10:00:33;;;;;;;29.07;18.50;;;5.70;75.10;;;;;;5078801;28;20186;-80
2023/03/05 10:03:02;;;;;;;23.47;16.90;;;5.70;75.10;;;;;;5060485;28;20534;-81
2023/03/05 10:05:49;;;;;;;21.03;17.30;;;5.70;75.70;;;;;;5077352;28;20207;-83
2023/03/05 10:08:20;;;;;;;24.37;17.40;;;5.90;73.90;;;;;;5076499;28;20215;-80
2023/03/05 10:10:52;;;;;;;22.33;16.57;;;6.00;72.00;;;;;;5075153;28;20215;-82
2023/03/05 10:13:27;;;;;;;24.77;17.53;;;6.10;72.10;;;;;;5075091;28;20274;-81
2023/03/05 10:16:04;;;;;;;22.37;17.53;;;6.30;70.80;;;;;;5075482;28;20191;-82
2023/03/05 10:18:51;;;;;;;27.50;18.60;;;6.40;70.50;;;;;;5076559;28;20801;-82
2023/03/05 10:21:52;;;;;;;22.03;16.23;;;6.30;71.40;;;;;;5076995;28;20276;-81
2023/03/05 10:24:36;;;;;;;21.20;15.90;;;6.30;71.50;;;;;;5046491;28;20254;-81
2023/03/05 10:27:12;;;;;;;23.50;16.10;;;6.20;72.40;;;;;;5061911;28;20206;-82
2023/03/05 10:29:57;;;;;;;21.50;16.00;;;6.40;70.00;;;;;;5078411;28;20207;-80
2023/03/05 10:32:26;;;;;;;21.97;16.57;;;6.40;69.90;;;;;;5080313;28;20209;-82
2023/03/05 10:35:16;;;;;;;21.77;17.03;;;6.20;70.60;;;;;;5080434;28;20381;-83
2023/03/05 10:38:04;;;;;;;21.00;16.20;;;5.80;72.60;;;;;;5080160;28;20160;-82
2023/03/05 10:40:45;;;;;;;22.63;15.70;;;5.60;73.60;;;;;;5080004;28;20331;-82
2023/03/05 10:43:11;;;;;;;18.87;14.80;;;5.60;74.30;;;;;;5079434;28;20199;-81
2023/03/05 10:45:46;;;;;;;18.80;15.03;;;5.70;73.30;;;;;;5078558;28;20254;-80
2023/03/05 10:48:39;;;;;;;24.17;16.50;;;5.70;73.70;;;;;;5077690;28;20372;-82
2023/03/05 10:51:26;;;;;;;23.80;17.17;;;5.70;74.10;;;;;;5061097;28;20207;-81
2023/03/05 10:53:57;;;;;;;20.57;16.57;;;5.80;75.00;;;;;;5079992;28;20186;-82
2023/03/05 10:56:26;;;;;;;24.83;16.90;;;5.70;73.40;;;;;;5080339;28;20200;-81
2023/03/05 10:58:52;;;;;;;20.10;14.97;;;5.60;74.70;;;;;;5079737;28;20175;-81
2023/03/05 11:01:24;;;;;;;24.00;15.90;;;5.80;73.90;;;;;;5079320;28;20321;-81
2023/03/05 11:03:53;;;;;;;20.60;15.43;;;6.10;73.20;;;;;;5076862;28;20176;-81
2023/03/05 11:06:30;;;;;;;20.70;15.53;;;6.30;71.50;;;;;;5078228;28;20630;-81
2023/03/05 11:09:15;;;;;;;18.57;15.03;;;6.10;71.50;;;;;;5078584;28;20264;-81
2023/03/05 11:11:40;;;;;;;18.70;15.10;;;6.20;71.50;;;;;;5077845;28;20190;-82
2023/03/05 11:14:29;;;;;;;20.53;15.50;;;6.20;71.70;;;;;;5057295;28;20175;-81
2023/03/05 11:16:56;;;;;;;23.97;15.70;;;6.30;70.30;;;;;;5075695;28;20188;-83
2023/03/05 11:19:31;;;;;;;20.10;14.97;;;6.50;69.90;;;;;;5076425;28;20179;-82
2023/03/05 11:22:07;;;;;;;19.20;15.53;;;6.60;69.20;;;;;;5070367;28;20167;-82
2023/03/05 11:24:32;;;;;;;19.57;15.17;;;6.60;69.80;;;;;;5090494;28;20190;-79
2023/03/05 11:26:58;;;;;;;23.47;15.87;;;6.60;69.30;;;;;;5070778;28;20298;-80
2023/03/05 11:29:27;;;;;;;21.67;14.87;;;6.80;68.90;;;;;;5083689;28;20199;-81
2023/03/05 11:31:54;;;;;;;18.57;15.40;;;6.70;68.40;;;;;;5078639;28;20179;-82
2023/03/05 11:34:19;;;;;;;20.97;15.17;;;6.50;70.00;;;;;;5077419;28;20182;-81
2023/03/05 11:36:54;;;;;;;19.83;14.83;;;6.60;69.20;;;;;;5078175;28;20215;-80
2023/03/05 11:39:24;;;;;;;23.90;16.23;;;6.70;69.00;;;;;;5078888;28;20183;-81
2023/03/05 11:42:01;;;;;;;23.00;18.03;;;6.40;69.80;;;;;;5077470;28;20258;-81
2023/03/05 11:44:47;;;;;;;19.30;15.50;;;6.30;71.20;;;;;;5077788;28;20219;-80
2023/03/05 11:47:42;;;;;;;18.60;15.47;;;6.20;70.80;;;;;;5078395;28;20195;-83
2023/03/05 11:50:26;;;;;;;25.17;16.10;;;6.40;70.20;;;;;;5076863;28;20737;-81
2023/03/05 11:52:59;;;;;;;20.43;14.67;;;6.60;70.10;;;;;;5078564;28;20254;-81
2023/03/05 11:55:49;;;;;;;23.07;14.57;;;6.70;68.70;;;;;;5058351;28;20248;-83
2023/03/05 11:58:53;;;;;;;26.10;15.30;;;6.80;68.00;;;;;;5065252;28;20308;-81
2023/03/05 12:01:24;;;;;;;19.80;14.70;;;6.80;68.00;;;;;;5075385;28;20195;-80
2023/03/05 12:03:51;;;;;;;23.57;16.17;;;6.70;68.50;;;;;;5058401;28;20187;-82
2023/03/05 12:06:39;;;;;;;18.87;15.10;;;6.70;67.80;;;;;;5074320;28;20671;-81
2023/03/05 12:09:50;;;;;;;20.03;15.40;;;6.60;68.70;;;;;;5075408;28;20195;-80
2023/03/05 12:12:53;;;;;;;20.50;14.77;;;6.80;68.80;;;;;;5060277;28;20206;-81
2023/03/05 12:15:44;;;;;;;20.30;15.23;;;6.80;69.80;;;;;;5080061;28;20196;-81
2023/03/05 12:18:12;;;;;;;18.03;14.40;;;6.50;70.30;;;;;;5080676;28;20178;-82
2023/03/05 12:20:56;;;;;;;18.60;14.83;;;6.30;70.80;;;;;;5064937;28;20176;-81
2023/03/05 12:23:22;;;;;;;20.43;15.53;;;6.20;71.30;;;;;;5063683;28;20222;-78
2023/03/05 12:25:55;;;;;;;20.03;14.33;;;6.30;70.50;;;;;;5062792;28;20604;-82
2023/03/05 12:28:32;;;;;;;20.20;14.57;;;6.40;71.10;;;;;;5063537;28;20175;-81
2023/03/05 12:31:03;;;;;;;21.67;14.43;;;6.50;68.80;;;;;;5062697;28;20199;-81
2023/03/05 12:33:34;;;;;;;19.37;14.20;;;6.30;69.80;;;;;;5080636;28;20182;-81
2023/03/05 12:36:18;;;;;;;17.60;13.13;;;6.40;69.20;;;;;;5062011;28;20296;-82
2023/03/05 12:38:50;;;;;;;18.20;13.90;;;6.50;68.50;;;;;;5080925;28;20241;-82
2023/03/05 12:41:22;;;;;;;19.93;13.33;;;6.50;68.60;;;;;;5081165;28;20266;-80
2023/03/05 12:44:06;;;;;;;19.97;15.17;;;6.40;69.80;;;;;;5080785;28;20191;-83
2023/03/05 12:46:36;;;;;;;20.00;13.30;;;6.50;69.70;;;;;;5081345;28;20278;-82
2023/03/05 12:49:38;;;;;;;15.47;12.83;;;6.60;69.50;;;;;;5063523;28;20183;-82